Radison, New York
Current Conditions -  °F | °C
As of 4:54 PM on Friday 19 Dec 2014 (Local Time) from KFZY Reporting Station
Overcast Overcast  
Wind Chill: 19°   Ceiling: 2100
Heat Index: 27°   Visibility: 10mi
Dew Point: 19°   Wind: 8mph
Humidity: 72%   Direction: 310°NW
Pressure: 30.18"   Gusts: NA
Location:  43.1825°N, 76.3664°W
Report Text: KFZY 192154Z AUTO 31007KT 10SM OVC021 M03/M07 A3018 RMK AO2 SLP226 T10281072
Loading
Personal Weather Stations






























Interactive Weather Map New forecast layout! Learn more

10-Day Weather Forecast

Advertisements
Track Severe Weather on mobile